sensor_id;sensor_type;location;lat;lon;timestamp;P1;durP1;ratioP1;P2;durP2;ratioP2
9276;SDS011;4676;42.678;23.244;2023-04-05T00:01:03;10.13;;;7.27;;
9276;SDS011;4676;42.678;23.244;2023-04-05T00:03:32;7.60;;;6.33;;
9276;SDS011;4676;42.678;23.244;2023-04-05T00:05:59;6.73;;;6.07;;
9276;SDS011;4676;42.678;23.244;2023-04-05T00:08:26;5.83;;;5.33;;
9276;SDS011;4676;42.678;23.244;2023-04-05T00:10:53;8.73;;;7.53;;
9276;SDS011;4676;42.678;23.244;2023-04-05T00:13:22;8.90;;;5.90;;
9276;SDS011;4676;42.678;23.244;2023-04-05T00:15:49;6.80;;;6.20;;
9276;SDS011;4676;42.678;23.244;2023-04-05T00:18:16;6.03;;;5.57;;
9276;SDS011;4676;42.678;23.244;2023-04-05T00:20:47;7.43;;;6.83;;
9276;SDS011;4676;42.678;23.244;2023-04-05T00:23:14;6.13;;;5.57;;
9276;SDS011;4676;42.678;23.244;2023-04-05T00:25:41;6.60;;;6.00;;
9276;SDS011;4676;42.678;23.244;2023-04-05T00:28:09;4.73;;;4.33;;
9276;SDS011;4676;42.678;23.244;2023-04-05T00:30:37;6.67;;;5.97;;
9276;SDS011;4676;42.678;23.244;2023-04-05T00:33:04;5.90;;;5.30;;
9276;SDS011;4676;42.678;23.244;2023-04-05T00:35:30;5.97;;;5.50;;
9276;SDS011;4676;42.678;23.244;2023-04-05T00:37:57;5.47;;;4.97;;
9276;SDS011;4676;42.678;23.244;2023-04-05T00:40:24;6.00;;;5.53;;
9276;SDS011;4676;42.678;23.244;2023-04-05T00:42:50;5.63;;;5.13;;
9276;SDS011;4676;42.678;23.244;2023-04-05T00:45:17;5.63;;;5.23;;
9276;SDS011;4676;42.678;23.244;2023-04-05T00:47:45;4.50;;;4.13;;
9276;SDS011;4676;42.678;23.244;2023-04-05T00:50:12;4.97;;;4.57;;
9276;SDS011;4676;42.678;23.244;2023-04-05T00:52:40;5.53;;;5.03;;
9276;SDS011;4676;42.678;23.244;2023-04-05T00:55:08;5.10;;;4.07;;
9276;SDS011;4676;42.678;23.244;2023-04-05T00:57:36;5.03;;;4.73;;
9276;SDS011;4676;42.678;23.244;2023-04-05T01:00:04;5.40;;;4.90;;
9276;SDS011;4676;42.678;23.244;2023-04-05T01:02:34;5.03;;;4.70;;
9276;SDS011;4676;42.678;23.244;2023-04-05T01:05:13;3.97;;;3.67;;
9276;SDS011;4676;42.678;23.244;2023-04-05T01:07:49;4.83;;;4.47;;
9276;SDS011;4676;42.678;23.244;2023-04-05T01:10:20;4.73;;;4.33;;
9276;SDS011;4676;42.678;23.244;2023-04-05T01:12:52;4.90;;;4.60;;
9276;SDS011;4676;42.678;23.244;2023-04-05T01:15:19;4.53;;;4.23;;
9276;SDS011;4676;42.678;23.244;2023-04-05T01:17:46;4.87;;;4.60;;
9276;SDS011;4676;42.678;23.244;2023-04-05T01:20:14;4.30;;;4.10;;
9276;SDS011;4676;42.678;23.244;2023-04-05T01:22:56;4.83;;;4.43;;
9276;SDS011;4676;42.678;23.244;2023-04-05T01:25:44;3.70;;;3.40;;
9276;SDS011;4676;42.678;23.244;2023-04-05T01:31:25;3.13;;;3.03;;
9276;SDS011;4676;42.678;23.244;2023-04-05T01:33:57;4.03;;;3.70;;
9276;SDS011;4676;42.678;23.244;2023-04-05T01:36:29;4.53;;;4.23;;
9276;SDS011;4676;42.678;23.244;2023-04-05T01:38:59;4.70;;;4.30;;
9276;SDS011;4676;42.678;23.244;2023-04-05T01:41:29;3.90;;;3.63;;
9276;SDS011;4676;42.678;23.244;2023-04-05T01:43:56;3.90;;;3.60;;
9276;SDS011;4676;42.678;23.244;2023-04-05T01:46:24;3.07;;;2.93;;
9276;SDS011;4676;42.678;23.244;2023-04-05T01:48:51;3.50;;;3.30;;
9276;SDS011;4676;42.678;23.244;2023-04-05T01:51:18;3.33;;;3.13;;
9276;SDS011;4676;42.678;23.244;2023-04-05T01:53:45;4.27;;;4.00;;
9276;SDS011;4676;42.678;23.244;2023-04-05T01:56:11;3.87;;;3.67;;
9276;SDS011;4676;42.678;23.244;2023-04-05T01:58:38;3.87;;;3.67;;
9276;SDS011;4676;42.678;23.244;2023-04-05T02:01:05;3.17;;;3.07;;
9276;SDS011;4676;42.678;23.244;2023-04-05T02:03:33;3.50;;;3.30;;
9276;SDS011;4676;42.678;23.244;2023-04-05T02:06:00;4.60;;;4.40;;
9276;SDS011;4676;42.678;23.244;2023-04-05T02:08:27;4.17;;;3.87;;
9276;SDS011;4676;42.678;23.244;2023-04-05T02:10:53;3.60;;;3.40;;
9276;SDS011;4676;42.678;23.244;2023-04-05T02:13:20;3.77;;;3.47;;
9276;SDS011;4676;42.678;23.244;2023-04-05T02:15:48;3.83;;;3.63;;
9276;SDS011;4676;42.678;23.244;2023-04-05T02:18:15;4.13;;;3.83;;
9276;SDS011;4676;42.678;23.244;2023-04-05T02:20:47;3.27;;;3.07;;
9276;SDS011;4676;42.678;23.244;2023-04-05T02:23:14;4.10;;;3.73;;
9276;SDS011;4676;42.678;23.244;2023-04-05T02:25:41;4.20;;;3.90;;
9276;SDS011;4676;42.678;23.244;2023-04-05T02:28:07;4.20;;;4.00;;
9276;SDS011;4676;42.678;23.244;2023-04-05T02:30:34;4.10;;;3.70;;
9276;SDS011;4676;42.678;23.244;2023-04-05T02:33:01;4.00;;;3.80;;
9276;SDS011;4676;42.678;23.244;2023-04-05T02:35:27;4.30;;;4.00;;
9276;SDS011;4676;42.678;23.244;2023-04-05T02:37:55;4.77;;;4.37;;
9276;SDS011;4676;42.678;23.244;2023-04-05T02:40:22;4.97;;;4.53;;
9276;SDS011;4676;42.678;23.244;2023-04-05T02:42:49;3.10;;;3.00;;
9276;SDS011;4676;42.678;23.244;2023-04-05T02:45:16;4.27;;;3.97;;
9276;SDS011;4676;42.678;23.244;2023-04-05T02:47:42;3.93;;;3.63;;
9276;SDS011;4676;42.678;23.244;2023-04-05T02:50:09;3.90;;;3.60;;
9276;SDS011;4676;42.678;23.244;2023-04-05T02:52:36;3.70;;;3.37;;
9276;SDS011;4676;42.678;23.244;2023-04-05T02:55:04;4.20;;;3.90;;
9276;SDS011;4676;42.678;23.244;2023-04-05T02:57:31;3.27;;;3.17;;
9276;SDS011;4676;42.678;23.244;2023-04-05T02:59:58;4.20;;;3.90;;
9276;SDS011;4676;42.678;23.244;2023-04-05T03:02:25;4.70;;;4.30;;
9276;SDS011;4676;42.678;23.244;2023-04-05T03:04:53;5.47;;;4.80;;
9276;SDS011;4676;42.678;23.244;2023-04-05T03:07:19;4.40;;;4.07;;
9276;SDS011;4676;42.678;23.244;2023-04-05T03:09:46;3.93;;;3.40;;
9276;SDS011;4676;42.678;23.244;2023-04-05T03:12:14;3.50;;;3.30;;
9276;SDS011;4676;42.678;23.244;2023-04-05T03:14:41;4.27;;;4.07;;
9276;SDS011;4676;42.678;23.244;2023-04-05T03:17:07;11.43;;;9.07;;
9276;SDS011;4676;42.678;23.244;2023-04-05T03:19:34;6.73;;;6.07;;
9276;SDS011;4676;42.678;23.244;2023-04-05T03:22:01;4.53;;;4.23;;
9276;SDS011;4676;42.678;23.244;2023-04-05T03:24:28;4.83;;;4.43;;
9276;SDS011;4676;42.678;23.244;2023-04-05T03:26:55;4.43;;;4.13;;
9276;SDS011;4676;42.678;23.244;2023-04-05T03:29:25;4.90;;;3.53;;
9276;SDS011;4676;42.678;23.244;2023-04-05T03:31:52;4.87;;;4.47;;
9276;SDS011;4676;42.678;23.244;2023-04-05T03:34:18;4.43;;;4.23;;
9276;SDS011;4676;42.678;23.244;2023-04-05T03:36:46;4.87;;;4.47;;
9276;SDS011;4676;42.678;23.244;2023-04-05T03:39:13;4.37;;;4.07;;
9276;SDS011;4676;42.678;23.244;2023-04-05T03:41:40;4.27;;;3.97;;
9276;SDS011;4676;42.678;23.244;2023-04-05T03:44:07;4.67;;;4.33;;
9276;SDS011;4676;42.678;23.244;2023-04-05T03:46:36;3.50;;;3.30;;
9276;SDS011;4676;42.678;23.244;2023-04-05T03:49:03;5.30;;;5.00;;
9276;SDS011;4676;42.678;23.244;2023-04-05T03:51:30;5.20;;;4.80;;
9276;SDS011;4676;42.678;23.244;2023-04-05T03:53:57;5.70;;;5.30;;
9276;SDS011;4676;42.678;23.244;2023-04-05T03:56:24;5.17;;;4.80;;
9276;SDS011;4676;42.678;23.244;2023-04-05T03:58:51;4.73;;;4.43;;
9276;SDS011;4676;42.678;23.244;2023-04-05T04:01:18;4.83;;;4.53;;
9276;SDS011;4676;42.678;23.244;2023-04-05T04:03:46;3.83;;;3.47;;
9276;SDS011;4676;42.678;23.244;2023-04-05T04:06:13;4.33;;;4.03;;
9276;SDS011;4676;42.678;23.244;2023-04-05T04:08:40;4.60;;;4.40;;
9276;SDS011;4676;42.678;23.244;2023-04-05T04:11:07;5.20;;;4.90;;
9276;SDS011;4676;42.678;23.244;2023-04-05T04:13:35;4.50;;;4.20;;
9276;SDS011;4676;42.678;23.244;2023-04-05T04:16:01;5.13;;;4.83;;
9276;SDS011;4676;42.678;23.244;2023-04-05T04:18:28;2.33;;;2.13;;
9276;SDS011;4676;42.678;23.244;2023-04-05T04:20:56;4.07;;;3.77;;
9276;SDS011;4676;42.678;23.244;2023-04-05T04:23:23;4.03;;;3.67;;
9276;SDS011;4676;42.678;23.244;2023-04-05T04:25:51;3.97;;;3.67;;
9276;SDS011;4676;42.678;23.244;2023-04-05T04:28:18;4.07;;;3.77;;
9276;SDS011;4676;42.678;23.244;2023-04-05T04:30:49;3.60;;;3.40;;
9276;SDS011;4676;42.678;23.244;2023-04-05T04:33:16;3.53;;;3.23;;
9276;SDS011;4676;42.678;23.244;2023-04-05T04:35:44;4.77;;;4.40;;
9276;SDS011;4676;42.678;23.244;2023-04-05T04:38:12;4.07;;;3.83;;
9276;SDS011;4676;42.678;23.244;2023-04-05T04:40:44;3.97;;;3.77;;
9276;SDS011;4676;42.678;23.244;2023-04-05T04:43:15;4.10;;;3.80;;
9276;SDS011;4676;42.678;23.244;2023-04-05T04:45:42;3.33;;;3.13;;
9276;SDS011;4676;42.678;23.244;2023-04-05T04:48:12;2.70;;;2.60;;
9276;SDS011;4676;42.678;23.244;2023-04-05T04:50:41;2.77;;;2.63;;
9276;SDS011;4676;42.678;23.244;2023-04-05T04:53:08;2.87;;;2.70;;
9276;SDS011;4676;42.678;23.244;2023-04-05T04:55:37;3.30;;;3.10;;
9276;SDS011;4676;42.678;23.244;2023-04-05T04:58:06;2.73;;;2.53;;
9276;SDS011;4676;42.678;23.244;2023-04-05T05:00:37;2.87;;;2.77;;
9276;SDS011;4676;42.678;23.244;2023-04-05T05:03:04;2.93;;;2.83;;
9276;SDS011;4676;42.678;23.244;2023-04-05T05:05:32;2.87;;;2.77;;
9276;SDS011;4676;42.678;23.244;2023-04-05T05:07:59;4.87;;;3.20;;
9276;SDS011;4676;42.678;23.244;2023-04-05T05:10:25;3.00;;;2.80;;
9276;SDS011;4676;42.678;23.244;2023-04-05T05:12:54;3.17;;;2.97;;
9276;SDS011;4676;42.678;23.244;2023-04-05T05:15:21;3.17;;;2.97;;
9276;SDS011;4676;42.678;23.244;2023-04-05T05:17:47;3.23;;;3.03;;
9276;SDS011;4676;42.678;23.244;2023-04-05T05:20:17;3.03;;;2.93;;
9276;SDS011;4676;42.678;23.244;2023-04-05T05:22:44;3.10;;;3.00;;
9276;SDS011;4676;42.678;23.244;2023-04-05T05:25:11;3.50;;;3.30;;
9276;SDS011;4676;42.678;23.244;2023-04-05T05:27:37;4.40;;;4.10;;
9276;SDS011;4676;42.678;23.244;2023-04-05T05:30:06;4.53;;;3.97;;
9276;SDS011;4676;42.678;23.244;2023-04-05T05:32:34;3.87;;;3.60;;
9276;SDS011;4676;42.678;23.244;2023-04-05T05:35:00;4.03;;;3.77;;
9276;SDS011;4676;42.678;23.244;2023-04-05T05:37:30;3.43;;;3.23;;
9276;SDS011;4676;42.678;23.244;2023-04-05T05:39:58;4.70;;;4.40;;
9276;SDS011;4676;42.678;23.244;2023-04-05T05:42:25;4.50;;;4.20;;
9276;SDS011;4676;42.678;23.244;2023-04-05T05:44:52;3.60;;;3.30;;
9276;SDS011;4676;42.678;23.244;2023-04-05T05:47:22;4.60;;;3.30;;
9276;SDS011;4676;42.678;23.244;2023-04-05T05:49:49;11.70;;;6.23;;
9276;SDS011;4676;42.678;23.244;2023-04-05T05:52:16;6.90;;;6.20;;
9276;SDS011;4676;42.678;23.244;2023-04-05T05:54:43;3.90;;;3.70;;
9276;SDS011;4676;42.678;23.244;2023-04-05T05:57:11;4.57;;;3.53;;
9276;SDS011;4676;42.678;23.244;2023-04-05T05:59:37;8.17;;;5.43;;
9276;SDS011;4676;42.678;23.244;2023-04-05T06:02:05;5.97;;;5.57;;
9276;SDS011;4676;42.678;23.244;2023-04-05T06:04:33;3.37;;;3.13;;
9276;SDS011;4676;42.678;23.244;2023-04-05T06:07:01;3.47;;;3.27;;
9276;SDS011;4676;42.678;23.244;2023-04-05T06:09:28;2.57;;;2.47;;
9276;SDS011;4676;42.678;23.244;2023-04-05T06:11:58;1.90;;;1.90;;
9276;SDS011;4676;42.678;23.244;2023-04-05T06:14:25;3.03;;;2.83;;
9276;SDS011;4676;42.678;23.244;2023-04-05T06:16:53;3.27;;;3.17;;
9276;SDS011;4676;42.678;23.244;2023-04-05T06:19:21;4.20;;;3.93;;
9276;SDS011;4676;42.678;23.244;2023-04-05T06:21:49;2.37;;;2.27;;
9276;SDS011;4676;42.678;23.244;2023-04-05T06:24:16;2.27;;;2.10;;
9276;SDS011;4676;42.678;23.244;2023-04-05T06:26:43;3.47;;;3.27;;
9276;SDS011;4676;42.678;23.244;2023-04-05T06:29:09;3.57;;;3.30;;
9276;SDS011;4676;42.678;23.244;2023-04-05T06:31:36;10.10;;;6.87;;
9276;SDS011;4676;42.678;23.244;2023-04-05T06:34:03;5.93;;;3.80;;
9276;SDS011;4676;42.678;23.244;2023-04-05T06:36:30;4.00;;;3.80;;
9276;SDS011;4676;42.678;23.244;2023-04-05T06:38:59;5.77;;;4.63;;
9276;SDS011;4676;42.678;23.244;2023-04-05T06:41:26;7.77;;;5.47;;
9276;SDS011;4676;42.678;23.244;2023-04-05T06:43:52;14.80;;;10.00;;
9276;SDS011;4676;42.678;23.244;2023-04-05T06:46:19;4.70;;;4.30;;
9276;SDS011;4676;42.678;23.244;2023-04-05T06:48:46;2.90;;;2.70;;
9276;SDS011;4676;42.678;23.244;2023-04-05T06:51:13;2.60;;;2.50;;
9276;SDS011;4676;42.678;23.244;2023-04-05T06:53:40;1.90;;;1.90;;
9276;SDS011;4676;42.678;23.244;2023-04-05T06:56:08;2.23;;;2.13;;
9276;SDS011;4676;42.678;23.244;2023-04-05T06:58:35;20.40;;;8.47;;
9276;SDS011;4676;42.678;23.244;2023-04-05T07:01:02;2.20;;;2.10;;
9276;SDS011;4676;42.678;23.244;2023-04-05T07:03:29;2.00;;;1.90;;
9276;SDS011;4676;42.678;23.244;2023-04-05T07:05:57;2.90;;;2.80;;
9276;SDS011;4676;42.678;23.244;2023-04-05T07:08:25;7.67;;;5.57;;
9276;SDS011;4676;42.678;23.244;2023-04-05T07:10:52;4.60;;;4.03;;
9276;SDS011;4676;42.678;23.244;2023-04-05T07:13:21;9.03;;;6.10;;
9276;SDS011;4676;42.678;23.244;2023-04-05T07:15:49;4.13;;;3.73;;
9276;SDS011;4676;42.678;23.244;2023-04-05T07:18:16;2.43;;;2.33;;
9276;SDS011;4676;42.678;23.244;2023-04-05T07:20:45;2.30;;;2.20;;
9276;SDS011;4676;42.678;23.244;2023-04-05T07:23:13;3.47;;;3.27;;
9276;SDS011;4676;42.678;23.244;2023-04-05T07:25:40;2.10;;;2.00;;
9276;SDS011;4676;42.678;23.244;2023-04-05T07:28:07;1.97;;;1.87;;
9276;SDS011;4676;42.678;23.244;2023-04-05T07:30:35;1.30;;;1.30;;
9276;SDS011;4676;42.678;23.244;2023-04-05T07:33:02;1.53;;;1.53;;
9276;SDS011;4676;42.678;23.244;2023-04-05T07:35:29;1.40;;;1.40;;
9276;SDS011;4676;42.678;23.244;2023-04-05T07:37:55;1.70;;;1.60;;
9276;SDS011;4676;42.678;23.244;2023-04-05T07:40:22;1.17;;;1.17;;
9276;SDS011;4676;42.678;23.244;2023-04-05T07:42:49;2.07;;;1.70;;
9276;SDS011;4676;42.678;23.244;2023-04-05T07:45:15;2.40;;;2.27;;
9276;SDS011;4676;42.678;23.244;2023-04-05T07:47:44;1.50;;;1.50;;
9276;SDS011;4676;42.678;23.244;2023-04-05T07:50:11;1.03;;;1.03;;
9276;SDS011;4676;42.678;23.244;2023-04-05T07:52:39;1.40;;;1.40;;
9276;SDS011;4676;42.678;23.244;2023-04-05T07:55:06;2.27;;;2.17;;
9276;SDS011;4676;42.678;23.244;2023-04-05T07:57:34;1.83;;;1.73;;
9276;SDS011;4676;42.678;23.244;2023-04-05T08:00:01;1.73;;;1.73;;
9276;SDS011;4676;42.678;23.244;2023-04-05T08:02:29;1.83;;;1.83;;
9276;SDS011;4676;42.678;23.244;2023-04-05T08:04:58;3.27;;;2.53;;
9276;SDS011;4676;42.678;23.244;2023-04-05T08:07:24;3.20;;;2.90;;
9276;SDS011;4676;42.678;23.244;2023-04-05T08:09:51;2.63;;;2.50;;
9276;SDS011;4676;42.678;23.244;2023-04-05T08:12:21;4.03;;;2.30;;
9276;SDS011;4676;42.678;23.244;2023-04-05T08:14:48;2.60;;;2.07;;
9276;SDS011;4676;42.678;23.244;2023-04-05T08:17:15;1.87;;;1.77;;
9276;SDS011;4676;42.678;23.244;2023-04-05T08:19:42;6.93;;;6.30;;
9276;SDS011;4676;42.678;23.244;2023-04-05T08:22:10;3.20;;;3.00;;
9276;SDS011;4676;42.678;23.244;2023-04-05T08:24:36;5.03;;;4.73;;
9276;SDS011;4676;42.678;23.244;2023-04-05T08:27:03;5.47;;;4.97;;
9276;SDS011;4676;42.678;23.244;2023-04-05T08:29:30;4.23;;;3.77;;
9276;SDS011;4676;42.678;23.244;2023-04-05T08:31:57;5.57;;;3.17;;
9276;SDS011;4676;42.678;23.244;2023-04-05T08:34:23;4.67;;;4.27;;
9276;SDS011;4676;42.678;23.244;2023-04-05T08:36:50;4.30;;;3.90;;
9276;SDS011;4676;42.678;23.244;2023-04-05T08:39:18;2.80;;;2.70;;
9276;SDS011;4676;42.678;23.244;2023-04-05T08:41:47;10.63;;;5.87;;
9276;SDS011;4676;42.678;23.244;2023-04-05T08:44:21;2.57;;;2.47;;
9276;SDS011;4676;42.678;23.244;2023-04-05T08:46:49;2.57;;;2.47;;
9276;SDS011;4676;42.678;23.244;2023-04-05T08:49:18;1.90;;;1.90;;
9276;SDS011;4676;42.678;23.244;2023-04-05T08:51:45;2.30;;;2.20;;
9276;SDS011;4676;42.678;23.244;2023-04-05T08:54:11;2.03;;;1.93;;
9276;SDS011;4676;42.678;23.244;2023-04-05T08:56:39;2.17;;;2.03;;
9276;SDS011;4676;42.678;23.244;2023-04-05T08:59:08;2.30;;;2.20;;
9276;SDS011;4676;42.678;23.244;2023-04-05T09:01:36;4.07;;;3.87;;
9276;SDS011;4676;42.678;23.244;2023-04-05T09:04:08;4.10;;;3.80;;
9276;SDS011;4676;42.678;23.244;2023-04-05T09:06:39;3.43;;;3.23;;
9276;SDS011;4676;42.678;23.244;2023-04-05T09:09:06;4.50;;;4.20;;
9276;SDS011;4676;42.678;23.244;2023-04-05T09:11:34;4.80;;;4.40;;
9276;SDS011;4676;42.678;23.244;2023-04-05T09:14:03;3.00;;;2.90;;
9276;SDS011;4676;42.678;23.244;2023-04-05T09:16:31;3.60;;;3.47;;
9276;SDS011;4676;42.678;23.244;2023-04-05T09:18:59;1.63;;;1.63;;
9276;SDS011;4676;42.678;23.244;2023-04-05T09:21:26;2.20;;;2.10;;
9276;SDS011;4676;42.678;23.244;2023-04-05T09:23:53;2.97;;;2.80;;
9276;SDS011;4676;42.678;23.244;2023-04-05T09:26:21;4.07;;;3.80;;
9276;SDS011;4676;42.678;23.244;2023-04-05T09:28:48;3.40;;;3.30;;
9276;SDS011;4676;42.678;23.244;2023-04-05T09:31:32;3.10;;;3.00;;
9276;SDS011;4676;42.678;23.244;2023-04-05T09:34:01;3.47;;;3.00;;
9276;SDS011;4676;42.678;23.244;2023-04-05T09:36:28;3.20;;;3.00;;
9276;SDS011;4676;42.678;23.244;2023-04-05T09:39:03;2.90;;;2.60;;
9276;SDS011;4676;42.678;23.244;2023-04-05T09:41:32;3.37;;;2.57;;
9276;SDS011;4676;42.678;23.244;2023-04-05T09:43:59;2.93;;;2.77;;
9276;SDS011;4676;42.678;23.244;2023-04-05T09:46:27;3.10;;;2.90;;
9276;SDS011;4676;42.678;23.244;2023-04-05T09:48:57;3.97;;;3.47;;
9276;SDS011;4676;42.678;23.244;2023-04-05T09:51:30;2.80;;;2.70;;
9276;SDS011;4676;42.678;23.244;2023-04-05T09:53:59;2.30;;;2.20;;
9276;SDS011;4676;42.678;23.244;2023-04-05T09:56:27;3.50;;;2.50;;
9276;SDS011;4676;42.678;23.244;2023-04-05T09:58:58;2.47;;;2.37;;
9276;SDS011;4676;42.678;23.244;2023-04-05T10:01:26;3.00;;;2.80;;
9276;SDS011;4676;42.678;23.244;2023-04-05T10:03:54;2.83;;;2.73;;
9276;SDS011;4676;42.678;23.244;2023-04-05T10:06:33;3.07;;;2.97;;
9276;SDS011;4676;42.678;23.244;2023-04-05T10:09:01;2.97;;;2.77;;
9276;SDS011;4676;42.678;23.244;2023-04-05T10:11:29;2.97;;;2.77;;
9276;SDS011;4676;42.678;23.244;2023-04-05T10:13:55;3.70;;;3.50;;
9276;SDS011;4676;42.678;23.244;2023-04-05T10:16:25;3.30;;;3.10;;
9276;SDS011;4676;42.678;23.244;2023-04-05T10:18:54;3.50;;;3.20;;
9276;SDS011;4676;42.678;23.244;2023-04-05T10:21:24;3.53;;;3.33;;
9276;SDS011;4676;42.678;23.244;2023-04-05T10:23:56;3.10;;;2.90;;
9276;SDS011;4676;42.678;23.244;2023-04-05T10:26:33;3.80;;;3.50;;
9276;SDS011;4676;42.678;23.244;2023-04-05T10:29:08;2.80;;;2.70;;
9276;SDS011;4676;42.678;23.244;2023-04-05T10:31:45;2.17;;;2.07;;
9276;SDS011;4676;42.678;23.244;2023-04-05T10:34:19;2.77;;;2.57;;
9276;SDS011;4676;42.678;23.244;2023-04-05T10:36:56;3.53;;;3.33;;
9276;SDS011;4676;42.678;23.244;2023-04-05T10:39:26;3.63;;;3.33;;
9276;SDS011;4676;42.678;23.244;2023-04-05T10:41:58;2.70;;;2.50;;
9276;SDS011;4676;42.678;23.244;2023-04-05T10:44:26;3.07;;;2.97;;
9276;SDS011;4676;42.678;23.244;2023-04-05T10:46:55;4.20;;;3.97;;
9276;SDS011;4676;42.678;23.244;2023-04-05T10:49:26;3.93;;;3.73;;
9276;SDS011;4676;42.678;23.244;2023-04-05T10:51:58;2.70;;;2.60;;
9276;SDS011;4676;42.678;23.244;2023-04-05T10:54:27;3.13;;;2.93;;
9276;SDS011;4676;42.678;23.244;2023-04-05T10:56:54;3.50;;;3.30;;
9276;SDS011;4676;42.678;23.244;2023-04-05T10:59:22;3.17;;;2.90;;
9276;SDS011;4676;42.678;23.244;2023-04-05T11:01:50;4.43;;;4.13;;
9276;SDS011;4676;42.678;23.244;2023-04-05T11:04:18;3.83;;;3.63;;
9276;SDS011;4676;42.678;23.244;2023-04-05T11:06:45;2.60;;;2.50;;
9276;SDS011;4676;42.678;23.244;2023-04-05T11:09:15;3.80;;;3.60;;
9276;SDS011;4676;42.678;23.244;2023-04-05T11:11:46;4.30;;;3.93;;
9276;SDS011;4676;42.678;23.244;2023-04-05T11:14:18;4.00;;;3.70;;
9276;SDS011;4676;42.678;23.244;2023-04-05T11:16:47;4.73;;;2.93;;
9276;SDS011;4676;42.678;23.244;2023-04-05T11:19:17;2.47;;;2.37;;
9276;SDS011;4676;42.678;23.244;2023-04-05T11:21:44;3.57;;;3.30;;
9276;SDS011;4676;42.678;23.244;2023-04-05T11:24:11;3.87;;;3.67;;
9276;SDS011;4676;42.678;23.244;2023-04-05T11:26:55;3.90;;;3.70;;
9276;SDS011;4676;42.678;23.244;2023-04-05T11:32:11;4.17;;;3.97;;
9276;SDS011;4676;42.678;23.244;2023-04-05T11:34:40;3.47;;;3.27;;
9276;SDS011;4676;42.678;23.244;2023-04-05T11:37:07;4.47;;;3.20;;
9276;SDS011;4676;42.678;23.244;2023-04-05T11:39:34;3.20;;;3.03;;
9276;SDS011;4676;42.678;23.244;2023-04-05T11:42:05;4.60;;;4.33;;
9276;SDS011;4676;42.678;23.244;2023-04-05T11:44:40;4.23;;;3.93;;
9276;SDS011;4676;42.678;23.244;2023-04-05T11:47:08;4.03;;;3.73;;
9276;SDS011;4676;42.678;23.244;2023-04-05T11:49:35;4.10;;;3.27;;
9276;SDS011;4676;42.678;23.244;2023-04-05T11:52:10;4.27;;;4.07;;
9276;SDS011;4676;42.678;23.244;2023-04-05T11:54:38;3.77;;;3.57;;
9276;SDS011;4676;42.678;23.244;2023-04-05T11:57:12;3.73;;;3.53;;
9276;SDS011;4676;42.678;23.244;2023-04-05T11:59:40;3.87;;;3.67;;
9276;SDS011;4676;42.678;23.244;2023-04-05T12:02:07;3.57;;;3.40;;
9276;SDS011;4676;42.678;23.244;2023-04-05T12:04:34;3.57;;;3.37;;
9276;SDS011;4676;42.678;23.244;2023-04-05T12:07:11;4.77;;;4.47;;
9276;SDS011;4676;42.678;23.244;2023-04-05T12:09:58;4.00;;;3.77;;
9276;SDS011;4676;42.678;23.244;2023-04-05T12:12:28;3.13;;;2.93;;
9276;SDS011;4676;42.678;23.244;2023-04-05T12:14:59;4.90;;;4.50;;
9276;SDS011;4676;42.678;23.244;2023-04-05T12:17:44;4.13;;;3.90;;
9276;SDS011;4676;42.678;23.244;2023-04-05T12:20:14;4.13;;;3.77;;
9276;SDS011;4676;42.678;23.244;2023-04-05T12:22:43;4.33;;;4.03;;
9276;SDS011;4676;42.678;23.244;2023-04-05T12:25:13;4.73;;;4.43;;
9276;SDS011;4676;42.678;23.244;2023-04-05T12:27:41;4.77;;;4.47;;
9276;SDS011;4676;42.678;23.244;2023-04-05T12:30:09;6.43;;;6.03;;
9276;SDS011;4676;42.678;23.244;2023-04-05T12:32:45;4.57;;;4.27;;
9276;SDS011;4676;42.678;23.244;2023-04-05T12:35:16;4.53;;;4.23;;
9276;SDS011;4676;42.678;23.244;2023-04-05T12:37:44;8.50;;;5.47;;
9276;SDS011;4676;42.678;23.244;2023-04-05T12:40:12;6.33;;;5.30;;
9276;SDS011;4676;42.678;23.244;2023-04-05T12:42:39;5.97;;;5.57;;
9276;SDS011;4676;42.678;23.244;2023-04-05T12:45:09;5.43;;;4.97;;
9276;SDS011;4676;42.678;23.244;2023-04-05T12:47:46;4.30;;;4.00;;
9276;SDS011;4676;42.678;23.244;2023-04-05T12:50:15;4.53;;;4.23;;
9276;SDS011;4676;42.678;23.244;2023-04-05T12:52:56;5.67;;;4.90;;
9276;SDS011;4676;42.678;23.244;2023-04-05T12:55:24;5.97;;;4.93;;
9276;SDS011;4676;42.678;23.244;2023-04-05T12:57:52;5.83;;;4.67;;
9276;SDS011;4676;42.678;23.244;2023-04-05T13:00:21;5.00;;;4.43;;
9276;SDS011;4676;42.678;23.244;2023-04-05T13:02:50;10.17;;;4.17;;
9276;SDS011;4676;42.678;23.244;2023-04-05T13:05:32;3.87;;;3.67;;
9276;SDS011;4676;42.678;23.244;2023-04-05T13:07:59;3.73;;;3.43;;
9276;SDS011;4676;42.678;23.244;2023-04-05T13:10:25;9.97;;;5.17;;
9276;SDS011;4676;42.678;23.244;2023-04-05T13:12:52;5.13;;;4.63;;
9276;SDS011;4676;42.678;23.244;2023-04-05T13:15:20;4.83;;;4.53;;
9276;SDS011;4676;42.678;23.244;2023-04-05T13:17:47;4.93;;;4.63;;
9276;SDS011;4676;42.678;23.244;2023-04-05T13:20:16;5.07;;;4.63;;
9276;SDS011;4676;42.678;23.244;2023-04-05T13:22:43;5.07;;;4.57;;
9276;SDS011;4676;42.678;23.244;2023-04-05T13:25:10;5.10;;;4.73;;
9276;SDS011;4676;42.678;23.244;2023-04-05T13:27:36;5.53;;;5.20;;
9276;SDS011;4676;42.678;23.244;2023-04-05T13:30:03;6.07;;;5.30;;
9276;SDS011;4676;42.678;23.244;2023-04-05T13:32:32;5.03;;;3.77;;
9276;SDS011;4676;42.678;23.244;2023-04-05T13:34:59;4.77;;;4.30;;
9276;SDS011;4676;42.678;23.244;2023-04-05T13:37:26;4.30;;;4.00;;
9276;SDS011;4676;42.678;23.244;2023-04-05T13:39:52;4.10;;;3.80;;
9276;SDS011;4676;42.678;23.244;2023-04-05T13:42:19;5.50;;;5.07;;
9276;SDS011;4676;42.678;23.244;2023-04-05T13:44:46;4.60;;;4.30;;
9276;SDS011;4676;42.678;23.244;2023-04-05T13:47:13;4.97;;;4.67;;
9276;SDS011;4676;42.678;23.244;2023-04-05T13:49:41;3.77;;;3.57;;
9276;SDS011;4676;42.678;23.244;2023-04-05T13:52:08;8.43;;;5.03;;
9276;SDS011;4676;42.678;23.244;2023-04-05T13:54:35;5.53;;;5.13;;
9276;SDS011;4676;42.678;23.244;2023-04-05T13:57:02;5.40;;;5.07;;
9276;SDS011;4676;42.678;23.244;2023-04-05T13:59:29;6.23;;;5.83;;
9276;SDS011;4676;42.678;23.244;2023-04-05T14:01:56;3.50;;;3.40;;
9276;SDS011;4676;42.678;23.244;2023-04-05T14:04:23;5.53;;;5.07;;
9276;SDS011;4676;42.678;23.244;2023-04-05T14:06:51;6.07;;;5.63;;
9276;SDS011;4676;42.678;23.244;2023-04-05T14:09:17;5.50;;;5.00;;
9276;SDS011;4676;42.678;23.244;2023-04-05T14:11:44;5.90;;;5.40;;
9276;SDS011;4676;42.678;23.244;2023-04-05T14:14:11;5.20;;;4.80;;
9276;SDS011;4676;42.678;23.244;2023-04-05T14:16:37;5.63;;;5.23;;
9276;SDS011;4676;42.678;23.244;2023-04-05T14:19:04;6.50;;;5.87;;
9276;SDS011;4676;42.678;23.244;2023-04-05T14:21:31;5.00;;;4.60;;
9276;SDS011;4676;42.678;23.244;2023-04-05T14:23:59;5.10;;;4.80;;
9276;SDS011;4676;42.678;23.244;2023-04-05T14:26:26;7.63;;;5.00;;
9276;SDS011;4676;42.678;23.244;2023-04-05T14:28:53;5.50;;;5.00;;
9276;SDS011;4676;42.678;23.244;2023-04-05T14:31:21;6.33;;;5.83;;
9276;SDS011;4676;42.678;23.244;2023-04-05T14:33:49;5.60;;;5.17;;
9276;SDS011;4676;42.678;23.244;2023-04-05T14:36:16;5.77;;;5.33;;
9276;SDS011;4676;42.678;23.244;2023-04-05T14:38:43;6.40;;;5.97;;
9276;SDS011;4676;42.678;23.244;2023-04-05T14:41:11;7.17;;;6.47;;
9276;SDS011;4676;42.678;23.244;2023-04-05T14:43:38;6.97;;;6.23;;
9276;SDS011;4676;42.678;23.244;2023-04-05T14:46:06;6.27;;;5.77;;
9276;SDS011;4676;42.678;23.244;2023-04-05T14:48:32;6.70;;;6.10;;
9276;SDS011;4676;42.678;23.244;2023-04-05T14:50:59;8.80;;;8.00;;
9276;SDS011;4676;42.678;23.244;2023-04-05T14:53:26;6.27;;;5.73;;
9276;SDS011;4676;42.678;23.244;2023-04-05T14:55:53;10.47;;;8.10;;
9276;SDS011;4676;42.678;23.244;2023-04-05T14:58:21;8.93;;;5.13;;
9276;SDS011;4676;42.678;23.244;2023-04-05T15:00:48;5.60;;;5.20;;
9276;SDS011;4676;42.678;23.244;2023-04-05T15:03:16;7.27;;;6.57;;
9276;SDS011;4676;42.678;23.244;2023-04-05T15:05:44;7.50;;;6.80;;
9276;SDS011;4676;42.678;23.244;2023-04-05T15:08:11;9.87;;;8.53;;
9276;SDS011;4676;42.678;23.244;2023-04-05T15:10:38;7.43;;;6.83;;
9276;SDS011;4676;42.678;23.244;2023-04-05T15:13:06;6.67;;;6.17;;